»·PEaware :: N6182G KAJO-KVCV

N6182G :: KAJO-KVCV

FLIGHT INFORMATION

Flight Status: Arrived
Operator: Privately registered:
United States
More flights under this callsign
Pilot: Thiago S. (19132)
Aircraft: CESSNA 182 SKYLANE
(C182)
More flights by this aircraft type
Origin: KAJO Corona Mun
United States
Destination: KVCV Socal Logistics
United States
More flights between these airports :: More routes between these airports
Route: +PDZ V442 APLES
File this flight plan on PilotEdge
Remarks: I RATING 11
Altitude:
(Current/Filed)
9,000ft
Speed:
(Current/Filed)
120kts
Departed: 25-Feb-19 03:50 PM
Arrived: 25-Feb-19 04:45 PM
Distance/Time
Traveled:
43nm/0:55
Distance/Time
To Go:
Arrived

Flight Plot

Page will automatically refresh every two minutes.


Map Options




Map Legend


Flown Route
Filed Route
Departure Airport
Arrival Airport
Navaid (VOR, NDB)
Fix

Horizontal Profiles

Position Reports

Time Latitude Longitude Heading Altitude Ground
Speed
25-Feb-19 15:36 33.896592 -117.598089 179 536ft 0kts
25-Feb-19 15:37 33.896592 -117.598089 179 536ft 0kts
25-Feb-19 15:38 33.896592 -117.598089 179 536ft 0kts
25-Feb-19 15:39 33.896592 -117.598089 179 536ft 0kts
25-Feb-19 15:40 33.896592 -117.598089 179 536ft 0kts
25-Feb-19 15:41 33.896592 -117.598089 179 536ft 0kts
25-Feb-19 15:42 33.896592 -117.598089 179 536ft 0kts
25-Feb-19 15:43 33.896591 -117.598089 179 536ft 0kts
25-Feb-19 15:44 33.896587 -117.598089 179 536ft 0kts
25-Feb-19 15:45 33.896539 -117.597965 15 536ft 4kts
25-Feb-19 15:46 33.897004 -117.598093 359 536ft 0kts
25-Feb-19 15:47 33.897009 -117.598093 359 536ft 0kts
25-Feb-19 15:48 33.897538 -117.597696 353 536ft 1kts
25-Feb-19 15:49 33.897726 -117.613788 281 1051ft 89kts
25-Feb-19 15:50 33.917435 -117.606814 63 2079ft 98kts
25-Feb-19 15:51 33.921560 -117.573603 92 3027ft 103kts
25-Feb-19 15:52 33.918075 -117.537750 97 3843ft 118kts
25-Feb-19 15:53 33.929033 -117.501880 44 4621ft 119kts
25-Feb-19 15:54 33.955832 -117.490195 309 5397ft 119kts
25-Feb-19 15:55 33.939550 -117.515973 192 6223ft 126kts
25-Feb-19 15:56 33.911997 -117.537225 262 7007ft 120kts
25-Feb-19 15:57 33.935510 -117.542462 43 7817ft 127kts
25-Feb-19 15:58 33.963813 -117.512949 38 8391ft 142kts
25-Feb-19 15:59 33.948846 -117.483567 205 8829ft 135kts
25-Feb-19 16:00 33.926819 -117.519287 244 9041ft 144kts
25-Feb-19 16:01 33.921081 -117.557472 335 9001ft 143kts
25-Feb-19 16:02 33.950954 -117.528749 52 8996ft 152kts
25-Feb-19 16:03 33.979155 -117.494135 18 9000ft 146kts
25-Feb-19 16:04 34.015432 -117.473131 24 8988ft 145kts
25-Feb-19 16:05 34.052015 -117.451825 24 8992ft 140kts
25-Feb-19 16:06 34.086610 -117.431541 24 8999ft 137kts
25-Feb-19 16:07 34.121099 -117.410737 23 8997ft 141kts
25-Feb-19 16:08 34.156659 -117.389593 21 9001ft 142kts
25-Feb-19 16:09 34.192615 -117.368327 22 9006ft 146kts
25-Feb-19 16:10 34.229831 -117.346418 22 9002ft 154kts
25-Feb-19 16:11 34.267479 -117.324145 22 8990ft 146kts
25-Feb-19 16:12 34.303752 -117.302494 22 8988ft 143kts
25-Feb-19 16:13 34.340013 -117.280961 22 8999ft 153kts
25-Feb-19 16:14 34.378156 -117.258559 21 8974ft 147kts
25-Feb-19 16:15 34.414984 -117.236626 22 8985ft 150kts
25-Feb-19 16:16 34.451905 -117.214678 22 8981ft 145kts
25-Feb-19 16:17 34.488881 -117.192598 23 8997ft 152kts
25-Feb-19 16:18 34.526414 -117.170412 24 8975ft 146kts
25-Feb-19 16:19 34.562905 -117.147348 21 8989ft 155kts
25-Feb-19 16:20 34.604074 -117.141287 353 8970ft 144kts
25-Feb-19 16:21 34.644890 -117.149666 341 8507ft 154kts
25-Feb-19 16:22 34.686278 -117.168595 331 8012ft 160kts
25-Feb-19 16:23 34.722810 -117.195852 321 7460ft 152kts
25-Feb-19 16:24 34.753017 -117.232638 300 7003ft 158kts
25-Feb-19 16:25 34.775018 -117.275478 292 6667ft 140kts
25-Feb-19 16:26 34.788962 -117.318921 281 6163ft 139kts
25-Feb-19 16:27 34.784841 -117.362132 205 5470ft 148kts
25-Feb-19 16:28 34.750205 -117.374493 194 4680ft 118kts
25-Feb-19 16:29 34.715916 -117.378469 188 4326ft 117kts
25-Feb-19 16:30 34.682977 -117.381652 187 4183ft 130kts
25-Feb-19 16:31 34.655701 -117.384080 189 3548ft 87kts
25-Feb-19 16:32 34.631893 -117.386449 189 3304ft 91kts
25-Feb-19 16:34 34.603849 -117.390736 219 4001ft 109kts
25-Feb-19 16:35 34.598319 -117.422939 291 4726ft 108kts
25-Feb-19 16:36 34.606547 -117.460346 277 5455ft 125kts
25-Feb-19 16:37 34.613972 -117.502626 280 6037ft 125kts
25-Feb-19 16:38 34.636121 -117.519574 44 5822ft 107kts
25-Feb-19 16:39 34.632979 -117.489001 116 5146ft 97kts
25-Feb-19 16:40 34.620639 -117.457446 123 4472ft 106kts
25-Feb-19 16:41 34.602795 -117.423726 123 3851ft 116kts
25-Feb-19 16:42 34.603281 -117.395781 356 3884ft 97kts
25-Feb-19 16:43 34.628910 -117.397331 24 3576ft 83kts
25-Feb-19 16:44 34.617014 -117.386748 183 3074ft 67kts
25-Feb-19 16:45 34.601601 -117.386609 178 2854ft 25kts
25-Feb-19 16:46 34.595758 -117.386525 180 2854ft 25kts
25-Feb-19 16:47 34.594285 -117.385581 92 2854ft 0kts
25-Feb-19 16:48 34.594243 -117.384372 94 2854ft 12kts
25-Feb-19 16:49 34.592063 -117.381387 135 2854ft 13kts
25-Feb-19 16:50 34.589691 -117.378533 135 2854ft 8kts
25-Feb-19 16:50 34.588979 -117.376632 44 2854ft 10kts
25-Feb-19 16:52 34.591929 -117.373083 43 2854ft 7kts
25-Feb-19 16:53 34.592772 -117.370874 90 2854ft 11kts
25-Feb-19 16:53 34.592069 -117.369095 96 2854ft 4kts
25-Feb-19 16:54 34.591751 -117.368165 2 2854ft 0kts
25-Feb-19 16:56 34.591689 -117.368201 41 2854ft 1kts
25-Feb-19 16:57 34.591593 -117.368230 0 2854ft 0kts
25-Feb-19 16:57 34.591593 -117.368230 0 2854ft 0kts
25-Feb-19 16:58 34.591593 -117.368230 0 2854ft 0kts

Navigation Log

Ident Type
Flight plan parsing failed, navigation log unavailable